createdAt,value
2023-04-08T00:00:40.318Z,100.00
2023-04-08T00:03:22.569Z,100.00
2023-04-08T00:05:53.644Z,100.00
2023-04-08T00:08:25.431Z,100.00
2023-04-08T00:10:57.338Z,100.00
2023-04-08T00:21:41.537Z,100.00
2023-04-08T00:24:10.916Z,100.00
2023-04-08T00:26:39.111Z,100.00
2023-04-08T00:29:07.217Z,100.00
2023-04-08T00:31:35.869Z,100.00
2023-04-08T00:34:04.109Z,100.00
2023-04-08T00:36:32.758Z,100.00
2023-04-08T00:39:02.449Z,100.00
2023-04-08T00:41:31.063Z,100.00
2023-04-08T00:43:59.200Z,100.00
2023-04-08T00:46:28.621Z,100.00
2023-04-08T00:48:56.875Z,100.00
2023-04-08T00:51:26.271Z,100.00
2023-04-08T00:53:55.043Z,100.00
2023-04-08T00:56:23.312Z,100.00
2023-04-08T00:58:55.211Z,100.00
2023-04-08T01:01:49.602Z,100.00
2023-04-08T01:04:39.694Z,100.00
2023-04-08T01:07:12.032Z,100.00
2023-04-08T01:09:48.183Z,100.00
2023-04-08T01:12:21.380Z,100.00
2023-04-08T01:14:49.687Z,100.00
2023-04-08T01:17:17.735Z,100.00
2023-04-08T01:19:46.734Z,100.00
2023-04-08T01:22:53.941Z,100.00
2023-04-08T01:25:24.990Z,100.00
2023-04-08T01:27:56.555Z,100.00
2023-04-08T01:30:25.250Z,100.00
2023-04-08T01:32:54.578Z,100.00
2023-04-08T01:35:23.784Z,100.00
2023-04-08T01:37:51.858Z,100.00
2023-04-08T01:40:20.500Z,100.00
2023-04-08T01:42:49.208Z,100.00
2023-04-08T01:45:17.531Z,100.00
2023-04-08T01:47:47.608Z,100.00
2023-04-08T01:50:16.606Z,100.00
2023-04-08T01:52:46.724Z,100.00
2023-04-08T01:55:16.266Z,100.00
2023-04-08T01:57:48.474Z,100.00
2023-04-08T02:00:18.880Z,100.00
2023-04-08T02:02:50.548Z,100.00
2023-04-08T02:05:21.051Z,100.00
2023-04-08T02:07:50.850Z,100.00
2023-04-08T02:10:25.255Z,100.00
2023-04-08T02:12:54.365Z,100.00
2023-04-08T02:15:22.925Z,100.00
2023-04-08T02:18:03.800Z,100.00
2023-04-08T02:20:40.030Z,100.00
2023-04-08T02:23:14.853Z,100.00
2023-04-08T02:25:45.651Z,100.00
2023-04-08T02:28:13.953Z,100.00
2023-04-08T02:30:48.561Z,100.00
2023-04-08T02:33:19.686Z,100.00
2023-04-08T02:35:48.957Z,100.00
2023-04-08T02:38:29.835Z,100.00
2023-04-08T02:40:58.865Z,100.00
2023-04-08T02:43:31.841Z,100.00
2023-04-08T02:46:04.366Z,100.00
2023-04-08T02:48:33.013Z,100.00
2023-04-08T02:51:01.132Z,100.00
2023-04-08T02:53:29.628Z,100.00
2023-04-08T02:55:57.935Z,100.00
2023-04-08T02:58:25.946Z,100.00
2023-04-08T03:00:55.619Z,100.00
2023-04-08T03:03:30.373Z,100.00
2023-04-08T03:05:59.442Z,100.00
2023-04-08T03:08:27.666Z,100.00
2023-04-08T03:10:56.706Z,100.00
2023-04-08T03:13:25.765Z,100.00
2023-04-08T03:15:53.903Z,100.00
2023-04-08T03:18:22.068Z,100.00
2023-04-08T03:20:50.299Z,100.00
2023-04-08T03:23:18.436Z,100.00
2023-04-08T03:25:47.860Z,100.00
2023-04-08T03:28:15.918Z,100.00
2023-04-08T03:30:44.564Z,100.00
2023-04-08T03:33:13.969Z,100.00
2023-04-08T03:35:42.094Z,100.00
2023-04-08T03:38:10.098Z,100.00
2023-04-08T03:40:38.149Z,100.00
2023-04-08T03:43:08.950Z,100.00
2023-04-08T03:45:37.109Z,100.00
2023-04-08T03:48:06.260Z,100.00
2023-04-08T03:50:34.996Z,100.00
2023-04-08T03:53:06.063Z,100.00
2023-04-08T03:55:34.278Z,100.00
2023-04-08T03:58:08.067Z,100.00
2023-04-08T04:00:36.273Z,100.00
2023-04-08T04:03:13.502Z,100.00
2023-04-08T04:05:42.558Z,100.00
2023-04-08T04:08:10.779Z,100.00
2023-04-08T04:10:39.496Z,100.00
2023-04-08T04:13:08.207Z,100.00
2023-04-08T04:15:40.336Z,100.00
2023-04-08T04:18:08.890Z,100.00
2023-04-08T04:20:41.635Z,100.00
2023-04-08T04:23:10.780Z,100.00
2023-04-08T04:25:41.939Z,100.00
2023-04-08T04:28:17.283Z,100.00
2023-04-08T04:30:48.391Z,100.00
2023-04-08T04:33:17.197Z,100.00
2023-04-08T04:35:47.341Z,100.00
2023-04-08T04:38:16.266Z,100.00
2023-04-08T04:40:47.695Z,100.00
2023-04-08T04:43:17.365Z,100.00
2023-04-08T04:45:47.432Z,100.00
2023-04-08T04:48:17.282Z,100.00
2023-04-08T04:50:45.613Z,100.00
2023-04-08T04:53:19.213Z,100.00
2023-04-08T04:55:48.927Z,100.00
2023-04-08T04:58:17.970Z,100.00
2023-04-08T05:00:46.794Z,100.00
2023-04-08T05:03:16.785Z,100.00
2023-04-08T05:05:53.396Z,100.00
2023-04-08T05:08:22.264Z,100.00
2023-04-08T05:10:50.906Z,100.00
2023-04-08T05:13:25.598Z,100.00
2023-04-08T05:15:56.154Z,100.00
2023-04-08T05:18:24.846Z,100.00
2023-04-08T05:20:57.615Z,100.00
2023-04-08T05:23:26.809Z,100.00
2023-04-08T05:25:55.544Z,100.00
2023-04-08T05:28:28.952Z,100.00
2023-04-08T05:30:59.063Z,100.00
2023-04-08T05:33:27.694Z,100.00
2023-04-08T05:35:59.292Z,100.00
2023-04-08T05:38:28.120Z,100.00
2023-04-08T05:40:56.914Z,100.00
2023-04-08T05:43:25.115Z,100.00
2023-04-08T05:45:53.924Z,100.00
2023-04-08T05:48:22.676Z,100.00
2023-04-08T05:50:57.187Z,100.00
2023-04-08T05:53:26.477Z,100.00
2023-04-08T05:55:54.834Z,100.00
2023-04-08T05:58:25.440Z,100.00
2023-04-08T06:00:55.706Z,100.00
2023-04-08T06:03:26.798Z,100.00
2023-04-08T06:05:56.702Z,100.00
2023-04-08T06:08:26.154Z,100.00
2023-04-08T06:10:58.039Z,100.00
2023-04-08T06:13:28.253Z,100.00
2023-04-08T06:15:56.825Z,100.00
2023-04-08T06:18:29.624Z,100.00
2023-04-08T06:20:59.784Z,100.00
2023-04-08T06:23:27.880Z,100.00
2023-04-08T06:25:55.890Z,100.00
2023-04-08T06:28:25.825Z,100.00
2023-04-08T06:30:54.471Z,100.00
2023-04-08T06:33:24.951Z,100.00
2023-04-08T06:36:01.267Z,99.96
2023-04-08T06:38:29.913Z,99.07
2023-04-08T06:41:08.101Z,98.39
2023-04-08T06:43:37.976Z,97.22
2023-04-08T06:46:06.444Z,96.38
2023-04-08T06:48:37.787Z,96.06
2023-04-08T06:51:08.052Z,95.63
2023-04-08T06:53:39.642Z,95.28
2023-04-08T06:56:07.942Z,95.49
2023-04-08T06:58:40.624Z,95.44
2023-04-08T07:01:08.727Z,95.34
2023-04-08T07:03:38.737Z,94.78
2023-04-08T07:06:06.880Z,94.22
2023-04-08T07:08:35.239Z,94.27
2023-04-08T07:11:05.529Z,93.28
2023-04-08T07:13:34.297Z,92.71
2023-04-08T07:16:02.573Z,92.53
2023-04-08T07:18:34.077Z,92.53
2023-04-08T07:21:03.632Z,92.54
2023-04-08T07:23:32.664Z,92.36
2023-04-08T07:26:07.393Z,92.60
2023-04-08T07:28:35.677Z,92.40
2023-04-08T07:31:16.213Z,92.75
2023-04-08T07:33:45.328Z,92.45
2023-04-08T07:36:15.758Z,91.44
2023-04-08T07:38:44.104Z,90.69
2023-04-08T07:41:12.202Z,89.50
2023-04-08T07:43:40.639Z,89.29
2023-04-08T07:46:09.297Z,88.56
2023-04-08T07:48:38.765Z,87.83
2023-04-08T07:51:11.063Z,87.59
2023-04-08T07:53:42.680Z,87.13
2023-04-08T07:56:12.572Z,87.48
2023-04-08T07:58:41.353Z,87.23
2023-04-08T08:01:22.499Z,86.37
2023-04-08T08:03:52.841Z,85.83
2023-04-08T08:06:29.757Z,86.43
2023-04-08T08:08:59.782Z,86.30
2023-04-08T08:11:28.618Z,85.72
2023-04-08T08:14:01.835Z,85.30
2023-04-08T08:16:33.768Z,84.97
2023-04-08T08:19:02.121Z,85.11
2023-04-08T08:21:36.434Z,84.15
2023-04-08T08:24:04.552Z,82.08
2023-04-08T08:26:37.141Z,81.02
2023-04-08T08:29:06.684Z,80.49
2023-04-08T08:31:36.097Z,80.27
2023-04-08T08:34:04.567Z,79.75
2023-04-08T08:36:35.044Z,79.83
2023-04-08T08:39:03.372Z,79.78
2023-04-08T08:41:37.996Z,80.44
2023-04-08T08:44:07.603Z,80.33
2023-04-08T08:46:35.938Z,80.01
2023-04-08T08:49:04.633Z,79.99
2023-04-08T08:51:34.095Z,80.59
2023-04-08T08:54:04.375Z,80.75
2023-04-08T08:56:34.136Z,80.13
2023-04-08T08:59:03.694Z,78.93
2023-04-08T09:01:34.460Z,78.52
2023-04-08T09:04:14.300Z,77.72
2023-04-08T09:06:43.181Z,76.58
2023-04-08T09:09:11.633Z,75.43
2023-04-08T09:11:41.454Z,75.49
2023-04-08T09:14:23.133Z,75.41
2023-04-08T09:16:52.062Z,75.84
2023-04-08T09:19:20.424Z,75.42
2023-04-08T09:22:10.862Z,74.74
2023-04-08T09:24:41.235Z,74.60
2023-04-08T09:27:14.780Z,72.73
2023-04-08T09:29:43.659Z,73.03
2023-04-08T09:32:11.612Z,73.32
2023-04-08T09:34:42.729Z,73.69
2023-04-08T09:37:12.008Z,74.11
2023-04-08T09:39:46.811Z,74.09
2023-04-08T09:42:15.925Z,73.32
2023-04-08T09:44:43.893Z,72.16
2023-04-08T09:47:20.158Z,72.26
2023-04-08T09:49:51.755Z,71.21
2023-04-08T09:52:44.699Z,69.36
2023-04-08T09:55:13.550Z,68.45
2023-04-08T09:57:45.838Z,67.55
2023-04-08T10:00:19.500Z,68.05
2023-04-08T10:03:25.185Z,67.77
2023-04-08T10:06:01.847Z,66.18
2023-04-08T10:08:31.716Z,65.97
2023-04-08T10:11:01.424Z,65.73
2023-04-08T10:13:35.330Z,64.20
2023-04-08T10:16:25.972Z,63.57
2023-04-08T10:18:58.111Z,63.22
2023-04-08T10:21:37.777Z,63.26
2023-04-08T10:24:10.563Z,62.94
2023-04-08T10:26:45.484Z,61.47
2023-04-08T10:29:19.561Z,61.11
2023-04-08T10:31:48.948Z,58.81
2023-04-08T10:34:24.920Z,59.04
2023-04-08T10:36:55.454Z,59.71
2023-04-08T10:39:27.490Z,60.07
2023-04-08T10:41:56.617Z,60.66
2023-04-08T10:44:26.978Z,61.42
2023-04-08T10:46:56.735Z,61.29
2023-04-08T10:49:33.955Z,62.04
2023-04-08T10:52:08.542Z,62.28
2023-04-08T10:54:38.858Z,62.57
2023-04-08T10:57:07.121Z,62.38
2023-04-08T10:59:36.964Z,62.54
2023-04-08T11:02:15.477Z,62.42
2023-04-08T11:04:45.251Z,62.25
2023-04-08T11:07:17.275Z,61.81
2023-04-08T11:09:47.243Z,61.51
2023-04-08T11:12:22.814Z,61.33
2023-04-08T11:14:54.811Z,60.50
2023-04-08T11:17:23.088Z,59.80
2023-04-08T11:19:58.026Z,59.18
2023-04-08T11:22:29.295Z,58.79
2023-04-08T11:24:58.094Z,57.87
2023-04-08T11:27:26.273Z,56.17
2023-04-08T11:29:57.284Z,54.38
2023-04-08T11:32:25.287Z,52.40
2023-04-08T11:34:55.056Z,51.80
2023-04-08T11:37:27.289Z,50.83
2023-04-08T11:39:58.812Z,50.33
2023-04-08T11:42:32.941Z,50.58
2023-04-08T11:45:01.487Z,49.67
2023-04-08T11:47:34.231Z,49.86
2023-04-08T11:50:03.017Z,50.64
2023-04-08T11:52:47.158Z,51.19
2023-04-08T11:55:32.062Z,51.16
2023-04-08T11:58:06.255Z,49.95
2023-04-08T12:00:37.481Z,49.82
2023-04-08T12:03:07.736Z,48.55
2023-04-08T12:05:42.809Z,47.70
2023-04-08T12:08:12.181Z,47.00
2023-04-08T12:10:40.810Z,47.17
2023-04-08T12:13:09.064Z,46.81
2023-04-08T12:15:37.942Z,46.65
2023-04-08T12:18:06.625Z,46.94
2023-04-08T12:20:39.944Z,46.96
2023-04-08T12:23:09.349Z,46.34
2023-04-08T12:25:37.961Z,46.43
2023-04-08T12:28:07.407Z,47.22
2023-04-08T12:30:37.704Z,46.22
2023-04-08T12:33:07.789Z,45.79
2023-04-08T12:35:36.264Z,45.72
2023-04-08T12:38:04.428Z,48.19
2023-04-08T12:40:33.565Z,50.50
2023-04-08T12:43:01.950Z,51.24
2023-04-08T12:45:30.140Z,51.70
2023-04-08T12:48:00.021Z,51.23
2023-04-08T12:50:28.477Z,50.78
2023-04-08T12:52:56.840Z,50.90
2023-04-08T12:55:27.650Z,50.59
2023-04-08T12:58:00.932Z,50.16
2023-04-08T13:00:29.192Z,49.23
2023-04-08T13:03:00.007Z,49.23
2023-04-08T13:05:42.084Z,49.98
2023-04-08T13:08:14.712Z,51.63
2023-04-08T13:10:43.835Z,51.79
2023-04-08T13:13:14.346Z,52.65
2023-04-08T13:15:43.855Z,54.11
2023-04-08T13:18:13.049Z,54.97
2023-04-08T13:20:41.644Z,56.80
2023-04-08T13:23:09.746Z,57.98
2023-04-08T13:25:38.119Z,58.83
2023-04-08T13:28:08.767Z,59.81
2023-04-08T13:30:39.092Z,61.31
2023-04-08T13:33:07.454Z,62.54
2023-04-08T13:35:35.666Z,62.99
2023-04-08T13:38:04.642Z,64.30
2023-04-08T13:40:33.341Z,65.42
2023-04-08T13:43:02.371Z,65.96
2023-04-08T13:45:30.442Z,66.36
2023-04-08T13:47:59.945Z,67.35
2023-04-08T13:50:28.373Z,68.06
2023-04-08T13:52:57.206Z,69.36
2023-04-08T13:55:26.880Z,70.14
2023-04-08T13:57:57.189Z,70.52
2023-04-08T14:00:27.152Z,71.24
2023-04-08T14:03:06.995Z,71.51
2023-04-08T14:05:37.479Z,71.62
2023-04-08T14:08:08.511Z,71.47
2023-04-08T14:10:42.411Z,70.34
2023-04-08T14:13:10.957Z,69.76
2023-04-08T14:15:43.118Z,69.03
2023-04-08T14:18:13.432Z,68.00
2023-04-08T14:20:44.345Z,66.97
2023-04-08T14:23:15.131Z,66.43
2023-04-08T14:25:43.222Z,66.35
2023-04-08T14:28:12.530Z,66.27
2023-04-08T14:30:42.991Z,66.11
2023-04-08T14:36:58.493Z,63.44
2023-04-08T14:39:28.488Z,62.46
2023-04-08T14:42:09.720Z,61.41
2023-04-08T14:44:38.436Z,60.90
2023-04-08T14:47:08.147Z,60.20
2023-04-08T14:49:37.546Z,59.66
2023-04-08T14:52:08.092Z,59.18
2023-04-08T14:54:38.347Z,58.80
2023-04-08T14:57:07.830Z,58.39
2023-04-08T14:59:37.844Z,57.70
2023-04-08T15:02:07.652Z,56.90
2023-04-08T15:04:36.102Z,55.72
2023-04-08T15:07:05.157Z,57.65
2023-04-08T15:09:33.858Z,59.91
2023-04-08T15:12:02.738Z,62.75
2023-04-08T15:14:31.135Z,65.84
2023-04-08T15:17:01.129Z,66.65
2023-04-08T15:19:29.501Z,66.48
2023-04-08T15:21:59.968Z,66.91
2023-04-08T15:24:28.000Z,67.52
2023-04-08T15:26:57.017Z,67.92
2023-04-08T15:29:26.239Z,67.70
2023-04-08T15:31:54.550Z,67.26
2023-04-08T15:34:23.154Z,66.98
2023-04-08T15:36:51.724Z,66.56
2023-04-08T15:39:19.705Z,66.17
2023-04-08T15:41:47.728Z,65.88
2023-04-08T15:44:16.307Z,66.08
2023-04-08T15:46:44.408Z,66.26
2023-04-08T15:49:12.548Z,66.63
2023-04-08T15:51:44.662Z,66.92
2023-04-08T15:54:12.967Z,66.90
2023-04-08T15:56:41.629Z,67.18
2023-04-08T15:59:14.793Z,67.47
2023-04-08T16:02:02.713Z,67.63
2023-04-08T16:04:31.632Z,68.19
2023-04-08T16:07:00.033Z,68.39
2023-04-08T16:09:28.312Z,68.52
2023-04-08T16:12:05.584Z,68.66
2023-04-08T16:14:34.073Z,68.72
2023-04-08T16:17:02.446Z,68.67
2023-04-08T16:19:33.592Z,68.63
2023-04-08T16:22:03.408Z,68.61
2023-04-08T16:24:36.550Z,68.84
2023-04-08T16:27:05.599Z,69.00
2023-04-08T16:29:33.825Z,69.11
2023-04-08T16:32:02.261Z,69.33
2023-04-08T16:34:30.593Z,69.66
2023-04-08T16:36:58.631Z,69.76
2023-04-08T16:39:26.829Z,69.76
2023-04-08T16:41:54.839Z,69.87
2023-04-08T16:44:26.297Z,70.27
2023-04-08T16:46:54.768Z,70.54
2023-04-08T16:49:23.202Z,70.62
2023-04-08T16:51:51.292Z,70.94
2023-04-08T16:54:20.311Z,70.72
2023-04-08T16:56:50.795Z,70.50
2023-04-08T16:59:18.990Z,70.39
2023-04-08T17:01:47.580Z,70.00
2023-04-08T17:04:15.910Z,69.97
2023-04-08T17:06:44.004Z,70.32
2023-04-08T17:09:12.316Z,70.21
2023-04-08T17:11:41.570Z,70.00
2023-04-08T17:14:10.032Z,69.62
2023-04-08T17:16:42.489Z,69.40
2023-04-08T17:19:13.290Z,69.58
2023-04-08T17:21:42.878Z,69.49
2023-04-08T17:24:28.471Z,70.01
2023-04-08T17:26:57.861Z,70.49
2023-04-08T17:29:27.162Z,70.67
2023-04-08T17:31:55.587Z,70.98
2023-04-08T17:34:24.862Z,71.74
2023-04-08T17:36:54.727Z,72.29
2023-04-08T17:39:23.564Z,72.01
2023-04-08T17:41:51.593Z,71.76
2023-04-08T17:44:21.301Z,72.17
2023-04-08T17:46:49.346Z,72.11
2023-04-08T17:49:18.998Z,71.53
2023-04-08T17:51:47.304Z,71.42
2023-04-08T17:54:17.354Z,71.57
2023-04-08T17:56:49.033Z,72.61
2023-04-08T17:59:18.020Z,74.51
2023-04-08T18:01:46.929Z,75.62
2023-04-08T18:04:16.464Z,75.71
2023-04-08T18:06:44.592Z,76.27
2023-04-08T18:09:12.856Z,76.30
2023-04-08T18:11:40.920Z,77.44
2023-04-08T18:14:09.444Z,78.45
2023-04-08T18:16:44.455Z,79.02
2023-04-08T18:19:15.945Z,78.80
2023-04-08T18:21:44.222Z,78.55
2023-04-08T18:24:13.358Z,78.61
2023-04-08T18:26:42.758Z,78.66
2023-04-08T18:29:12.166Z,78.93
2023-04-08T18:31:40.873Z,78.77
2023-04-08T18:34:11.210Z,79.25
2023-04-08T18:36:40.042Z,79.18
2023-04-08T18:39:12.762Z,79.25
2023-04-08T18:41:42.861Z,78.89
2023-04-08T18:44:12.514Z,78.39
2023-04-08T18:46:41.788Z,78.28
2023-04-08T18:49:12.336Z,77.83
2023-04-08T18:51:44.123Z,76.99
2023-04-08T18:54:22.121Z,76.95
2023-04-08T18:56:50.930Z,76.83
2023-04-08T18:59:19.570Z,76.48
2023-04-08T19:01:47.828Z,76.74
2023-04-08T19:04:16.943Z,76.94
2023-04-08T19:06:45.290Z,77.41
2023-04-08T19:09:14.554Z,77.89
2023-04-08T19:11:44.158Z,78.21
2023-04-08T19:14:12.794Z,78.41
2023-04-08T19:16:46.738Z,79.01
2023-04-08T19:19:16.266Z,79.36
2023-04-08T19:21:44.533Z,79.68
2023-04-08T19:24:12.496Z,79.86
2023-04-08T19:26:41.332Z,80.46
2023-04-08T19:29:10.539Z,80.70
2023-04-08T19:31:39.328Z,81.23
2023-04-08T19:34:07.792Z,81.41
2023-04-08T19:36:41.416Z,81.87
2023-04-08T19:39:09.562Z,82.75
2023-04-08T19:41:38.152Z,82.72
2023-04-08T19:44:06.178Z,82.90
2023-04-08T19:46:34.926Z,83.15
2023-04-08T19:49:03.902Z,83.00
2023-04-08T19:51:32.848Z,83.03
2023-04-08T19:54:04.339Z,83.17
2023-04-08T19:56:34.095Z,83.15
2023-04-08T19:59:04.508Z,83.18
2023-04-08T20:01:36.554Z,83.46
2023-04-08T20:04:05.742Z,83.43
2023-04-08T20:06:34.966Z,83.62
2023-04-08T20:09:05.824Z,83.68
2023-04-08T20:11:34.525Z,83.46
2023-04-08T20:14:04.400Z,83.46
2023-04-08T20:16:34.733Z,83.48
2023-04-08T20:19:04.565Z,83.59
2023-04-08T20:21:35.034Z,84.11
2023-04-08T20:24:03.318Z,84.27
2023-04-08T20:26:32.211Z,84.64
2023-04-08T20:29:00.791Z,85.10
2023-04-08T20:31:32.274Z,85.43
2023-04-08T20:34:00.634Z,85.75
2023-04-08T20:36:30.284Z,86.15
2023-04-08T20:39:00.214Z,86.25
2023-04-08T20:41:28.545Z,86.88
2023-04-08T20:43:56.556Z,87.08
2023-04-08T20:46:29.543Z,87.65
2023-04-08T20:48:58.588Z,88.10
2023-04-08T20:51:27.483Z,89.02
2023-04-08T20:53:56.605Z,89.85
2023-04-08T20:56:26.624Z,90.33
2023-04-08T20:59:00.956Z,90.87
2023-04-08T21:01:30.156Z,91.01
2023-04-08T21:03:59.213Z,91.01
2023-04-08T21:06:27.867Z,90.92
2023-04-08T21:08:59.478Z,91.11
2023-04-08T21:11:28.578Z,91.80
2023-04-08T21:14:01.707Z,92.51
2023-04-08T21:16:34.532Z,93.20
2023-04-08T21:19:04.151Z,93.96
2023-04-08T21:21:42.116Z,93.89
2023-04-08T21:24:10.820Z,94.03
2023-04-08T21:26:38.918Z,93.48
2023-04-08T21:29:07.332Z,93.43
2023-04-08T21:31:35.860Z,93.71
2023-04-08T21:34:07.414Z,94.05
2023-04-08T21:36:36.749Z,94.38
2023-04-08T21:39:05.250Z,94.44
2023-04-08T21:41:33.190Z,94.76
2023-04-08T21:44:01.529Z,95.12
2023-04-08T21:46:29.998Z,95.38
2023-04-08T21:48:58.091Z,95.32
2023-04-08T21:51:26.742Z,95.23
2023-04-08T21:53:54.795Z,95.15
2023-04-08T21:56:24.531Z,95.64
2023-04-08T21:58:53.039Z,95.97
2023-04-08T22:01:21.678Z,96.45
2023-04-08T22:03:54.001Z,96.90
2023-04-08T22:06:32.009Z,97.00
2023-04-08T22:09:00.959Z,97.25
2023-04-08T22:11:30.178Z,97.45
2023-04-08T22:13:58.283Z,97.51
2023-04-08T22:16:26.437Z,97.73
2023-04-08T22:18:55.078Z,98.00
2023-04-08T22:21:23.857Z,97.99
2023-04-08T22:23:52.522Z,97.58
2023-04-08T22:26:21.611Z,97.44
2023-04-08T22:28:51.062Z,97.64
2023-04-08T22:31:21.209Z,97.51
2023-04-08T22:33:50.578Z,97.49
2023-04-08T22:36:18.676Z,97.60
2023-04-08T22:38:50.957Z,97.32
2023-04-08T22:41:21.018Z,96.89
2023-04-08T22:43:49.743Z,96.71
2023-04-08T22:46:20.907Z,96.97
2023-04-08T22:48:49.656Z,97.16
2023-04-08T22:51:18.927Z,97.15
2023-04-08T22:53:47.168Z,96.51
2023-04-08T22:56:15.408Z,96.49
2023-04-08T22:58:50.826Z,96.26
2023-04-08T23:01:22.544Z,95.86
2023-04-08T23:03:52.304Z,95.21
2023-04-08T23:06:20.527Z,94.00
2023-04-08T23:08:51.644Z,93.65
2023-04-08T23:11:20.969Z,93.47
2023-04-08T23:13:54.935Z,93.23
2023-04-08T23:16:23.773Z,93.25
2023-04-08T23:18:52.030Z,93.14
2023-04-08T23:21:26.254Z,92.79
2023-04-08T23:23:55.123Z,92.44
2023-04-08T23:26:23.240Z,92.44
2023-04-08T23:28:54.841Z,92.47
2023-04-08T23:31:23.564Z,92.41
2023-04-08T23:33:52.329Z,92.12
2023-04-08T23:36:24.449Z,91.75
2023-04-08T23:38:52.986Z,90.86
2023-04-08T23:41:21.204Z,91.05
2023-04-08T23:43:54.213Z,90.99
2023-04-08T23:46:23.319Z,91.00
2023-04-08T23:48:57.674Z,90.91
2023-04-08T23:51:27.895Z,90.72
2023-04-08T23:53:56.521Z,90.72
2023-04-08T23:56:31.963Z,90.42
2023-04-08T23:59:00.077Z,90.06
